ID Time Temp Humidity Light PM2.5 PM10 Voltage Extra Firmware Position Fcnt TTN version Gateways Distance RSSI LSNR Radiosettings
2026-05-08 21:32:36 -26°C -26% 3.35V v4 52.104 / 5.0047 28 ttn.v3 0.745km -123 -6.2 867.9MHz, SF9BW125, 4/5CR
2026-05-08 21:00:37 -26°C -26% 3.35V v4 52.104 / 5.0047 26 ttn.v3 0.745km -116 -3.8 867.7MHz, SF9BW125, 4/5CR
2026-05-08 20:44:37 -26°C -26% 3.35V v4 52.104 / 5.0047 25 ttn.v3 0.745km -122 -5.5 868.1MHz, SF9BW125, 4/5CR
2026-05-08 20:28:37 -26°C -26% 3.35V v4 52.104 / 5.0047 24 ttn.v3 0.745km -117 0.2 867.5MHz, SF9BW125, 4/5CR
2026-05-08 19:56:36 -26°C -26% 3.35V v4 52.104 / 5.0047 22 ttn.v3 0.745km -117 -1.8 867.3MHz, SF9BW125, 4/5CR
2026-05-08 19:24:35 -26°C -26% 3.35V v4 52.104 / 5.0047 20 ttn.v3 0.745km -118 -8 867.1MHz, SF9BW125, 4/5CR
2026-05-08 19:08:34 -26°C -26% 3.34V v4 52.104 / 5.0047 19 ttn.v3 0.745km -126 -7.2 868.1MHz, SF9BW125, 4/5CR
2026-05-08 18:52:33 -26°C -26% 3.35V v4 52.104 / 5.0047 18 ttn.v3 0.745km -121 -6.8 867.9MHz, SF9BW125, 4/5CR
2026-05-08 18:20:32 -26°C -26% 3.35V v4 52.104 / 5.0047 16 ttn.v3 0.745km -118 -5.5 867.7MHz, SF9BW125, 4/5CR
2026-05-08 17:48:31 -26°C -26% 3.35V v4 52.104 / 5.0047 14 ttn.v3 0.745km -120 -3.5 867.5MHz, SF9BW125, 4/5CR
2026-05-08 17:32:30 -26°C -26% 3.35V v4 52.104 / 5.0047 13 ttn.v3 0.745km -120 -4.5 868.1MHz, SF9BW125, 4/5CR
2026-05-08 17:16:29 -26°C -26% 3.35V v4 52.104 / 5.0047 12 ttn.v3 0.745km -119 -3.8 867.3MHz, SF9BW125, 4/5CR
2026-05-08 16:44:28 -26°C -26% 3.35V v4 52.104 / 5.0047 10 ttn.v3 0.745km -118 -6.5 867.1MHz, SF9BW125, 4/5CR
2026-05-08 15:56:26 -26°C -26% 3.35V v4 52.104 / 5.0047 7 ttn.v3 0.745km -122 -5 868.1MHz, SF9BW125, 4/5CR
2026-05-08 15:40:25 -26°C -26% 3.35V v4 52.104 / 5.0047 6 ttn.v3 0.745km -118 -6 867.7MHz, SF9BW125, 4/5CR
2026-05-08 15:08:23 -26°C -26% 3.35V v4 52.104 / 5.0047 4 ttn.v3 0.745km -120 -5.5 867.5MHz, SF9BW125, 4/5CR
2026-05-08 14:36:21 -26°C -26% 3.34V v4 52.104 / 5.0047 2 ttn.v3 0.745km -118 -3.8 867.3MHz, SF9BW125, 4/5CR
2026-05-08 14:20:20 -26°C -26% 3.35V v4 52.104 / 5.0047 1 ttn.v3 0.745km -123 -7.8 868.1MHz, SF9BW125, 4/5CR
2026-05-08 14:06:33 -26°C -26% 3.34V v4 52.104 / 5.0047 0 ttn.v3 0.745km -118 -5.5 867.1MHz, SF9BW125, 4/5CR
2026-05-01 15:19:30 -26°C -26% 3.35V v4 52.1041 / 5.00449 2 ttn.v3 0.739km -124 -7 867.3MHz, SF9BW125, 4/5CR
2026-05-01 15:03:27 -26°C -26% 3.35V v4 52.1041 / 5.00449 1 ttn.v3 0.739km -121 -10.2 868.5MHz, SF9BW125, 4/5CR
2026-05-01 14:47:29 -26°C -26% 3.35V v4 52.1041 / 5.00449 0 ttn.v3 0.739km -124 -10.8 867.1MHz, SF9BW125, 4/5CR
2026-05-01 13:59:39 -26°C -26% 3.35V v4 52.1042 / 5.00439 1 ttn.v3 0.731km -121 -6.8 868.1MHz, SF9BW125, 4/5CR
2026-05-01 13:45:33 -26°C -26% 3.34V v4 52.1042 / 5.00439 0 ttn.v3 0.731km -123 -9.8 867.1MHz, SF9BW125, 4/5CR
2026-05-01 13:43:44 -26°C -26% 3.35V v4 52.1041 / 5.00488 3 ttn.v3 0.73km -112 -5.5 868.5MHz, SF9BW125, 4/5CR
2026-05-01 13:27:41 -26°C -26% 3.35V v4 52.1041 / 5.00488 2 ttn.v3 0.73km -117 -1.8 867.5MHz, SF9BW125, 4/5CR
2026-05-01 12:57:49 -26°C -26% 3.34V v4 52.1041 / 5.00488 0 ttn.v3 0.73km -121 -4.2 867.3MHz, SF9BW125, 4/5CR
2026-05-01 12:55:45 -26°C -26% 3.35V v4 No position 2 ttn.v3 - -124 -5 867.5MHz, SF9BW125, 4/5CR
2026-05-01 12:39:43 -26°C -26% 3.35V v4 No position 1 ttn.v3 - -116 -4.5 868.1MHz, SF9BW125, 4/5CR
2026-05-01 12:23:48 -26°C -26% 3.35V v4 No position 0 ttn.v3 - -122 -7.5 867.3MHz, SF9BW125, 4/5CR
2026-05-01 11:04:02 -26°C -26% 3.35V v4 No position 4 ttn.v3 - -122 -9.5 867.5MHz, SF9BW125, 4/5CR
2026-05-01 10:32:03 -26°C -26% 3.35V v4 No position 2 ttn.v3 - -116 -1.2 867.3MHz, SF9BW125, 4/5CR
2026-05-01 10:00:10 -26°C -26% 3.34V v4 No position 7 ttn.v3 - -122 -7.5 868.1MHz, SF9BW125, 4/5CR
2026-05-01 09:44:11 -26°C -26% 3.35V v4 No position 6 ttn.v3 - -117 -2.8 867.9MHz, SF9BW125, 4/5CR
2026-05-01 09:28:12 -26°C -26% 3.35V v4 No position 5 ttn.v3 - -119 -5 868.5MHz, SF9BW125, 4/5CR
2026-05-01 09:12:12 -26°C -26% 3.34V v4 No position 4 ttn.v3 - -124 -11.5 867.7MHz, SF9BW125, 4/5CR
2026-05-01 08:40:14 -26°C -26% 3.35V v4 No position 2 ttn.v3 - -126 -12.5 867.5MHz, SF9BW125, 4/5CR
2026-05-01 08:24:15 -26°C -26% 3.35V v4 No position 1 ttn.v3 - -129 -10 868.1MHz, SF9BW125, 4/5CR
2026-05-01 08:10:30 -26°C -26% 3.34V v4 No position 0 ttn.v3 - -126 -7.2 867.3MHz, SF9BW125, 4/5CR
2026-05-01 08:08:23 -26°C -26% 3.35V v4 52.104 / 5.00452 7 ttn.v3 0.749km -120 -2.8 868.1MHz, SF9BW125, 4/5CR
2026-05-01 07:36:25 -26°C -26% 3.35V v4 52.104 / 5.00452 5 ttn.v3 0.749km -124 -11.5 868.5MHz, SF9BW125, 4/5CR
2026-05-01 07:20:26 -26°C -26% 3.34V v4 52.104 / 5.00452 4 ttn.v3 0.749km -118 -2.5 867.3MHz, SF9BW125, 4/5CR
2026-05-01 06:48:29 -26°C -26% 3.34V v4 52.104 / 5.00452 2 ttn.v3 0.749km -119 -5.8 867.1MHz, SF9BW125, 4/5CR
2026-05-01 06:32:30 -26°C -26% 3.34V v4 52.104 / 5.00452 1 ttn.v3 0.749km -118 -3 868.1MHz, SF9BW125, 4/5CR
2026-05-01 06:16:37 -26°C -26% 3.35V v4 52.1041 / 5.0047 2 ttn.v3 0.734km -122 -5.2 867.3MHz, SF9BW125, 4/5CR
2026-05-01 06:00:38 -26°C -26% 3.35V v4 52.1041 / 5.0047 1 ttn.v3 0.734km -123 -5.8 868.1MHz, SF9BW125, 4/5CR
2026-05-01 05:46:46 -26°C -26% 3.34V v4 52.1041 / 5.0047 0 ttn.v3 0.734km -118 -5.5 867.1MHz, SF9BW125, 4/5CR
2026-05-01 05:44:46 -26°C -26% 3.34V v4 52.1041 / 5.00461 2 ttn.v3 0.736km -123 -5.8 867.9MHz, SF9BW125, 4/5CR
2026-05-01 05:12:54 -26°C -26% 3.35V v4 52.1041 / 5.00461 0 ttn.v3 0.736km -119 -6 867.7MHz, SF9BW125, 4/5CR
2026-05-01 03:37:15 -26°C -26% 3.34V v4 52.1041 / 5.00452 22 ttn.v3 0.739km -116 -7.2 867.3MHz, SF9BW125, 4/5CR
2026-05-01 03:05:17 -26°C -26% 3.35V v4 52.1041 / 5.00452 20 ttn.v3 0.739km -119 -6 867.1MHz, SF9BW125, 4/5CR
2026-05-01 02:49:18 -26°C -26% 3.35V v4 52.1041 / 5.00452 19 ttn.v3 0.739km -118 -1.2 868.1MHz, SF9BW125, 4/5CR
2026-05-01 02:33:18 -26°C -26% 3.34V v4 52.1041 / 5.00452 18 ttn.v3 0.739km -117 -2.2 867.9MHz, SF9BW125, 4/5CR
2026-05-01 02:17:19 -26°C -26% 3.34V v4 52.1041 / 5.00452 17 ttn.v3 0.739km -123 -9 868.5MHz, SF9BW125, 4/5CR
2026-05-01 01:29:21 -26°C -26% 3.35V v4 52.1041 / 5.00452 14 ttn.v3 0.739km -115 0 867.5MHz, SF9BW125, 4/5CR
2026-05-01 01:13:21 -26°C -26% 3.35V v4 52.1041 / 5.00452 13 ttn.v3 0.739km -120 -3.5 868.1MHz, SF9BW125, 4/5CR
2026-05-01 00:57:21 -26°C -26% 3.35V v4 52.1041 / 5.00452 12 ttn.v3 0.739km -114 0 867.3MHz, SF9BW125, 4/5CR
2026-05-01 00:41:21 -26°C -26% 3.34V v4 52.1041 / 5.00452 11 ttn.v3 0.739km -121 -6.8 868.5MHz, SF9BW125, 4/5CR
2026-05-01 00:25:21 -26°C -26% 3.35V v4 52.1041 / 5.00452 10 ttn.v3 0.739km -126 -15.2 867.1MHz, SF9BW125, 4/5CR
2026-04-30 23:53:22 -26°C -26% 3.35V v4 52.1041 / 5.00452 8 ttn.v3 0.739km -126 -8.8 867.9MHz, SF9BW125, 4/5CR
2026-04-30 23:21:22 -26°C -26% 3.35V v4 52.1041 / 5.00452 6 ttn.v3 0.739km -123 -9.2 867.7MHz, SF9BW125, 4/5CR
2026-04-30 23:05:22 -26°C -26% 3.35V v4 52.1041 / 5.00452 5 ttn.v3 0.739km -124 -11.8 868.5MHz, SF9BW125, 4/5CR
2026-04-30 22:49:22 -26°C -26% 3.35V v4 52.1041 / 5.00452 4 ttn.v3 0.739km -125 -8 867.5MHz, SF9BW125, 4/5CR
2026-04-30 22:17:21 -26°C -26% 3.35V v4 52.1041 / 5.00452 2 ttn.v3 0.739km -125 -6 867.3MHz, SF9BW125, 4/5CR
2026-04-30 22:01:21 -26°C -26% 3.35V v4 52.1041 / 5.00452 1 ttn.v3 0.739km -125 -6.2 868.1MHz, SF9BW125, 4/5CR
2026-04-30 21:45:27 -26°C -26% 3.35V v4 52.1041 / 5.00452 0 ttn.v3 0.739km -121 -9.2 867.1MHz, SF9BW125, 4/5CR
2026-04-30 20:09:45 -26°C -26% 3.35V v4 52.1041 / 5.00458 3147 ttn.v3 0.737km -125 -12.8 867.7MHz, SF9BW125, 4/5CR
2026-04-30 19:37:42 -26°C -26% 3.35V v4 52.1041 / 5.00458 3145 ttn.v3 0.737km -124 -5 867.5MHz, SF9BW125, 4/5CR
2026-04-30 19:05:38 -26°C -26% 3.35V v4 52.1041 / 5.00458 3143 ttn.v3 0.737km -128 -13.8 867.3MHz, SF9BW125, 4/5CR
2026-04-30 18:33:34 -26°C -26% 3.35V v4 52.1041 / 5.00458 3141 ttn.v3 0.737km -122 -10.5 867.1MHz, SF9BW125, 4/5CR
2026-04-30 18:01:37 -26°C -26% 3.35V v4 No position 3139 ttn.v3 - -124 -7.2 867.9MHz, SF9BW125, 4/5CR
2026-04-30 17:13:29 -26°C -26% 3.35V v4 No position 3136 ttn.v3 - -127 -8.2 868.1MHz, SF9BW125, 4/5CR
2026-04-30 16:25:21 -26°C -26% 3.35V v4 No position 3133 ttn.v3 - -128 -10.5 867.3MHz, SF9BW125, 4/5CR
2026-04-30 15:53:16 -26°C -26% 3.35V v4 No position 3131 ttn.v3 - -120 -7.2 867.1MHz, SF9BW125, 4/5CR
2026-04-30 15:21:10 -26°C -26% 3.35V v4 No position 3129 ttn.v3 - -129 -12.2 867.9MHz, SF9BW125, 4/5CR
2026-04-30 14:49:05 -26°C -26% 3.35V v4 No position 3127 ttn.v3 - -122 -8.5 867.7MHz, SF9BW125, 4/5CR
2026-04-30 13:44:57 -26°C -26% 3.35V v4 No position 3123 ttn.v3 - -121 -3.8 867.3MHz, SF9BW125, 4/5CR
2026-04-30 13:12:54 -26°C -26% 3.35V v4 No position 3121 ttn.v3 - -123 -11 867.1MHz, SF9BW125, 4/5CR
2026-04-30 12:40:52 -26°C -26% 3.35V v4 No position 3119 ttn.v3 - -125 -8 867.9MHz, SF9BW125, 4/5CR
2026-04-30 12:24:51 -26°C -26% 3.35V v4 No position 3118 ttn.v3 - -122 -7.5 868.1MHz, SF9BW125, 4/5CR
2026-04-30 12:08:51 -26°C -26% 3.35V v4 No position 3117 ttn.v3 - -116 -3.5 867.7MHz, SF9BW125, 4/5CR
2026-04-30 11:36:51 -26°C -26% 3.35V v4 No position 3115 ttn.v3 - -126 -9 867.5MHz, SF9BW125, 4/5CR
2026-04-30 11:04:51 -26°C -26% 3.35V v4 No position 3113 ttn.v3 - -129 -12 867.3MHz, SF9BW125, 4/5CR
2026-04-30 10:48:52 -26°C -26% 3.35V v4 No position 3112 ttn.v3 - -120 -6 868.1MHz, SF9BW125, 4/5CR
2026-04-30 10:32:52 -26°C -26% 3.35V v4 No position 3111 ttn.v3 - -118 -5.5 867.1MHz, SF9BW125, 4/5CR
2026-04-30 10:00:54 -26°C -26% 3.34V v4 No position 3109 ttn.v3 - -125 -7.8 867.9MHz, SF9BW125, 4/5CR
2026-04-30 09:12:57 -26°C -26% 3.34V v4 No position 3106 ttn.v3 - -127 -7.8 868.1MHz, SF9BW125, 4/5CR
2026-04-30 08:25:01 -26°C -26% 3.34V v4 No position 3103 ttn.v3 - -118 -4.5 867.3MHz, SF9BW125, 4/5CR
2026-04-30 07:53:05 -26°C -26% 3.34V v4 No position 3101 ttn.v3 - -122 -8.8 867.1MHz, SF9BW125, 4/5CR
2026-04-30 07:37:06 -26°C -26% 3.34V v4 No position 3100 ttn.v3 - -131 -13.2 868.1MHz, SF9BW125, 4/5CR
2026-04-30 07:21:08 -26°C -26% 3.34V v4 No position 3099 ttn.v3 - -119 -4.8 867.9MHz, SF9BW125, 4/5CR
2026-04-30 06:49:12 -26°C -26% 3.34V v4 No position 3097 ttn.v3 - -120 -6.8 867.7MHz, SF9BW125, 4/5CR
2026-04-30 06:17:16 -26°C -26% 3.34V v4 No position 3095 ttn.v3 - -115 1.5 867.5MHz, SF9BW125, 4/5CR
2026-04-30 06:01:18 -26°C -26% 3.35V v4 No position 3094 ttn.v3 - -118 -1 868.1MHz, SF9BW125, 4/5CR
2026-04-30 05:45:19 -26°C -26% 3.35V v4 No position 3093 ttn.v3 - -115 -0.2 867.3MHz, SF9BW125, 4/5CR
2026-04-30 05:13:23 -26°C -26% 3.34V v4 No position 3091 ttn.v3 - -121 -7.8 867.1MHz, SF9BW125, 4/5CR
2026-04-30 04:41:26 -26°C -26% 3.35V v4 No position 3089 ttn.v3 - -120 -3.2 867.9MHz, SF9BW125, 4/5CR
2026-04-30 04:25:28 -26°C -26% 3.34V v4 No position 3088 ttn.v3 - -110 -1.5 868.1MHz, SF9BW125, 4/5CR
2026-04-30 04:09:29 -26°C -26% 3.34V v4 No position 3087 ttn.v3 - -117 -3.8 867.7MHz, SF9BW125, 4/5CR
2026-04-30 03:37:32 -26°C -26% 3.34V v4 No position 3085 ttn.v3 - -117 -4.2 867.5MHz, SF9BW125, 4/5CR
2026-04-30 03:05:34 -26°C -26% 3.34V v4 No position 3083 ttn.v3 - -113 1 867.3MHz, SF9BW125, 4/5CR
2026-04-30 02:49:36 -26°C -26% 3.35V v4 No position 3082 ttn.v3 - -117 1 868.1MHz, SF9BW125, 4/5CR
2026-04-30 02:33:37 -26°C -26% 3.35V v4 No position 3081 ttn.v3 - -120 -7.5 867.1MHz, SF9BW125, 4/5CR
2026-04-30 02:17:38 -26°C -26% 3.34V v4 No position 3080 ttn.v3 - -118 -9.8 868.5MHz, SF9BW125, 4/5CR
2026-04-30 02:01:39 -26°C -26% 3.35V v4 No position 3079 ttn.v3 - -120 -4.5 867.9MHz, SF9BW125, 4/5CR
2026-04-30 01:29:41 -26°C -26% 3.35V v4 No position 3077 ttn.v3 - -122 -9.2 867.7MHz, SF9BW125, 4/5CR
2026-04-30 01:13:42 -26°C -26% 3.34V v4 No position 3076 ttn.v3 - -122 -3.2 868.1MHz, SF9BW125, 4/5CR
2026-04-30 00:57:43 -26°C -26% 3.34V v4 No position 3075 ttn.v3 - -121 -3.8 867.5MHz, SF9BW125, 4/5CR
2026-04-30 00:25:45 -26°C -26% 3.35V v4 No position 3073 ttn.v3 - -124 -7.2 867.3MHz, SF9BW125, 4/5CR
2026-04-29 23:53:46 -26°C -26% 3.35V v4 No position 3071 ttn.v3 - -122 -9.2 867.1MHz, SF9BW125, 4/5CR
2026-04-29 23:37:47 -26°C -26% 3.35V v4 No position 3070 ttn.v3 - -120 -1.8 868.1MHz, SF9BW125, 4/5CR
2026-04-29 22:49:49 -26°C -26% 3.35V v4 No position 3067 ttn.v3 - -116 -3 867.7MHz, SF9BW125, 4/5CR
2026-04-29 22:33:49 -26°C -26% 3.35V v4 No position 3066 ttn.v3 - -116 -9 868.3MHz, SF9BW125, 4/5CR
2026-04-29 22:17:50 -26°C -26% 3.35V v4 No position 3065 ttn.v3 - -119 -0.2 867.5MHz, SF9BW125, 4/5CR
2026-04-29 21:45:50 -26°C -26% 3.35V v4 No position 3063 ttn.v3 - -118 -4 867.3MHz, SF9BW125, 4/5CR
2026-04-29 21:13:51 -26°C -26% 3.34V v4 No position 3061 ttn.v3 - -126 -12.5 867.1MHz, SF9BW125, 4/5CR
2026-04-29 20:41:50 -26°C -26% 3.35V v4 No position 3059 ttn.v3 - -122 -5.2 867.9MHz, SF9BW125, 4/5CR
2026-04-29 20:25:50 -26°C -26% 3.35V v4 No position 3058 ttn.v3 - -123 -4.2 868.1MHz, SF9BW125, 4/5CR
2026-04-29 19:05:46 -26°C -26% 3.35V v4 No position 3053 ttn.v3 - -118 -1.5 867.3MHz, SF9BW125, 4/5CR
2026-04-29 18:33:43 -26°C -26% 3.35V v4 No position 3051 ttn.v3 - -126 -13 867.1MHz, SF9BW125, 4/5CR
2026-04-29 18:01:40 -26°C -26% 3.35V v4 No position 3049 ttn.v3 - -116 -2 867.9MHz, SF9BW125, 4/5CR
2026-04-29 17:13:34 -26°C -26% 3.35V v4 No position 3046 ttn.v3 - -125 -6 868.1MHz, SF9BW125, 4/5CR
2026-04-29 16:57:32 -26°C -26% 3.35V v4 No position 3045 ttn.v3 - -119 -2.2 867.5MHz, SF9BW125, 4/5CR
2026-04-29 16:25:37 -26°C -26% 3.35V v4 52.104 / 5.00436 3043 ttn.v3 0.753km -118 -3.5 867.3MHz, SF9BW125, 4/5CR
2026-04-29 15:37:30 -26°C -26% 3.35V v4 52.104 / 5.00436 3040 ttn.v3 0.753km -119 -4.2 868.1MHz, SF9BW125, 4/5CR
2026-04-29 15:21:28 -26°C -26% 3.35V v4 52.104 / 5.00436 3039 ttn.v3 0.753km -120 -2.5 867.9MHz, SF9BW125, 4/5CR
2026-04-29 14:49:24 -26°C -26% 3.35V v4 52.104 / 5.00436 3037 ttn.v3 0.753km -120 -7.5 867.7MHz, SF9BW125, 4/5CR
2026-04-29 14:17:20 -26°C -26% 3.35V v4 52.104 / 5.00436 3035 ttn.v3 0.753km -113 1.2 867.5MHz, SF9BW125, 4/5CR
2026-04-29 14:01:18 -26°C -26% 3.34V v4 52.104 / 5.00436 3034 ttn.v3 0.753km -121 -4.2 868.1MHz, SF9BW125, 4/5CR
2026-04-29 13:45:17 -26°C -26% 3.35V v4 52.104 / 5.00436 3033 ttn.v3 0.753km -118 -0.5 867.3MHz, SF9BW125, 4/5CR
2026-04-29 13:29:15 -26°C -26% 3.35V v4 52.104 / 5.00436 3032 ttn.v3 0.753km -114 -1.8 868.5MHz, SF9BW125, 4/5CR
2026-04-29 12:41:13 -26°C -26% 3.35V v4 52.104 / 5.00436 3029 ttn.v3 0.753km -124 -6.5 867.9MHz, SF9BW125, 4/5CR
2026-04-29 12:09:12 -26°C -26% 3.35V v4 52.104 / 5.00436 3027 ttn.v3 0.753km -117 -5 867.7MHz, SF9BW125, 4/5CR
2026-04-29 11:37:12 -26°C -26% 3.35V v4 52.104 / 5.00436 3025 ttn.v3 0.753km -115 -0.2 867.5MHz, SF9BW125, 4/5CR
2026-04-29 11:05:13 -26°C -26% 3.34V v4 52.104 / 5.00436 3023 ttn.v3 0.753km -118 -3.2 867.3MHz, SF9BW125, 4/5CR
2026-04-29 10:49:14 -26°C -26% 3.35V v4 52.104 / 5.00436 3022 ttn.v3 0.753km -124 -8.8 868.1MHz, SF9BW125, 4/5CR
2026-04-29 10:33:15 -26°C -26% 3.35V v4 52.104 / 5.00436 3021 ttn.v3 0.753km -120 -8.5 867.1MHz, SF9BW125, 4/5CR
2026-04-29 10:01:17 -26°C -26% 3.35V v4 52.104 / 5.00436 3019 ttn.v3 0.753km -116 -1 867.9MHz, SF9BW125, 4/5CR
2026-04-29 09:29:19 -26°C -26% 3.34V v4 52.104 / 5.00436 3017 ttn.v3 0.753km -120 -7.5 867.7MHz, SF9BW125, 4/5CR
2026-04-29 09:13:21 -26°C -26% 3.34V v4 52.104 / 5.00436 3016 ttn.v3 0.753km -115 -1.8 868.1MHz, SF9BW125, 4/5CR
2026-04-29 08:57:23 -26°C -26% 3.35V v4 52.104 / 5.00436 3015 ttn.v3 0.753km -128 -12.5 867.5MHz, SF9BW125, 4/5CR
2026-04-29 08:25:26 -26°C -26% 3.35V v4 52.104 / 5.00436 3013 ttn.v3 0.753km -120 -6.5 867.3MHz, SF9BW125, 4/5CR
2026-04-29 07:53:30 -26°C -26% 3.34V v4 52.104 / 5.00436 3011 ttn.v3 0.753km -128 -14.8 867.1MHz, SF9BW125, 4/5CR
2026-04-29 07:37:32 -26°C -26% 3.34V v4 52.104 / 5.00436 3010 ttn.v3 0.753km -116 -5 868.1MHz, SF9BW125, 4/5CR
2026-04-29 07:21:34 -26°C -26% 3.35V v4 52.104 / 5.00436 3009 ttn.v3 0.753km -118 -3 867.9MHz, SF9BW125, 4/5CR
2026-04-29 06:49:37 -26°C -26% 3.34V v4 52.104 / 5.00436 3007 ttn.v3 0.753km -116 -3.5 867.7MHz, SF9BW125, 4/5CR
2026-04-29 06:17:41 -26°C -26% 3.35V v4 52.104 / 5.00436 3005 ttn.v3 0.753km -119 -3 867.5MHz, SF9BW125, 4/5CR
2026-04-29 06:01:43 -26°C -26% 3.34V v4 52.104 / 5.00436 3004 ttn.v3 0.753km -124 -5.5 868.1MHz, SF9BW125, 4/5CR
2026-04-29 05:45:45 -26°C -26% 3.35V v4 52.104 / 5.00436 3003 ttn.v3 0.753km -117 -2.2 867.3MHz, SF9BW125, 4/5CR
2026-04-29 05:13:48 -26°C -26% 3.35V v4 52.104 / 5.00436 3001 ttn.v3 0.753km -118 -8.5 867.1MHz, SF9BW125, 4/5CR
2026-04-29 04:25:53 -26°C -26% 3.35V v4 52.104 / 5.00436 2998 ttn.v3 0.753km -128 -9 868.1MHz, SF9BW125, 4/5CR
2026-04-29 04:09:55 -26°C -26% 3.35V v4 52.104 / 5.00436 2997 ttn.v3 0.753km -116 -4.5 867.7MHz, SF9BW125, 4/5CR
2026-04-29 03:37:57 -26°C -26% 3.35V v4 52.104 / 5.00436 2995 ttn.v3 0.753km -115 4 867.5MHz, SF9BW125, 4/5CR
2026-04-29 03:06:00 -26°C -26% 3.35V v4 52.104 / 5.00436 2993 ttn.v3 0.753km -124 -5.5 867.3MHz, SF9BW125, 4/5CR
2026-04-29 02:50:02 -26°C -26% 3.35V v4 52.104 / 5.00436 2992 ttn.v3 0.753km -127 -9.8 868.1MHz, SF9BW125, 4/5CR
2026-04-29 02:34:03 -26°C -26% 3.35V v4 52.104 / 5.00436 2991 ttn.v3 0.753km -116 -3.5 867.1MHz, SF9BW125, 4/5CR
2026-04-29 01:30:08 -26°C -26% 3.35V v4 52.104 / 5.00436 2987 ttn.v3 0.753km -116 -5.2 867.7MHz, SF9BW125, 4/5CR
2026-04-29 01:14:09 -26°C -26% 3.35V v4 52.104 / 5.00436 2986 ttn.v3 0.753km -129 -12 868.1MHz, SF9BW125, 4/5CR
2026-04-29 00:58:10 -26°C -26% 3.35V v4 52.104 / 5.00436 2985 ttn.v3 0.753km -130 -12.5 867.5MHz, SF9BW125, 4/5CR
2026-04-29 00:26:12 -26°C -26% 3.35V v4 52.104 / 5.00436 2983 ttn.v3 0.753km -122 -5.2 867.3MHz, SF9BW125, 4/5CR
2026-04-28 23:54:14 -26°C -26% 3.35V v4 52.104 / 5.00436 2981 ttn.v3 0.753km -118 -5.2 867.1MHz, SF9BW125, 4/5CR
2026-04-28 23:38:15 -26°C -26% 3.35V v4 52.104 / 5.00436 2980 ttn.v3 0.753km -118 -4 868.1MHz, SF9BW125, 4/5CR
2026-04-28 23:22:16 -26°C -26% 3.35V v4 52.104 / 5.00436 2979 ttn.v3 0.753km -125 -10 867.9MHz, SF9BW125, 4/5CR
2026-04-28 22:50:17 -26°C -26% 3.34V v4 52.104 / 5.00436 2977 ttn.v3 0.753km -121 -9.2 867.7MHz, SF9BW125, 4/5CR
2026-04-28 22:18:18 -26°C -26% 3.35V v4 52.104 / 5.00436 2975 ttn.v3 0.753km -124 -5 867.5MHz, SF9BW125, 4/5CR
2026-04-28 22:02:18 -26°C -26% 3.35V v4 52.104 / 5.00436 2974 ttn.v3 0.753km -127 -8.2 868.1MHz, SF9BW125, 4/5CR
2026-04-28 21:46:18 -26°C -26% 3.35V v4 52.104 / 5.00436 2973 ttn.v3 0.753km -127 -9.8 867.3MHz, SF9BW125, 4/5CR
2026-04-28 21:14:19 -26°C -26% 3.35V v4 52.104 / 5.00436 2971 ttn.v3 0.753km -123 -10 867.1MHz, SF9BW125, 4/5CR
2026-04-28 20:42:18 -26°C -26% 3.35V v4 52.104 / 5.00436 2969 ttn.v3 0.753km -118 -3.5 867.9MHz, SF9BW125, 4/5CR
2026-04-28 20:26:18 -26°C -26% 3.35V v4 52.104 / 5.00436 2968 ttn.v3 0.753km -126 -11.5 868.1MHz, SF9BW125, 4/5CR
2026-04-28 20:10:17 -26°C -26% 3.35V v4 52.104 / 5.00436 2967 ttn.v3 0.753km -120 -7.2 867.7MHz, SF9BW125, 4/5CR
2026-04-28 19:54:17 -26°C -26% 3.35V v4 52.104 / 5.00436 2966 ttn.v3 0.753km -116 -4.8 868.5MHz, SF9BW125, 4/5CR
2026-04-28 19:06:14 -26°C -26% 3.35V v4 52.104 / 5.00436 2963 ttn.v3 0.753km -114 -0.5 867.3MHz, SF9BW125, 4/5CR
2026-04-28 18:50:12 -26°C -26% 3.35V v4 52.104 / 5.00436 2962 ttn.v3 0.753km -128 -10.5 868.1MHz, SF9BW125, 4/5CR
2026-04-28 18:02:08 -26°C -26% 3.35V v4 52.104 / 5.00436 2959 ttn.v3 0.753km -116 -1.5 867.9MHz, SF9BW125, 4/5CR
2026-04-28 17:30:04 -26°C -26% 3.35V v4 52.104 / 5.00436 2957 ttn.v3 0.753km -125 -13 867.7MHz, SF9BW125, 4/5CR
2026-04-28 17:14:02 -26°C -26% 3.35V v4 52.104 / 5.00436 2956 ttn.v3 0.753km -123 -8 868.1MHz, SF9BW125, 4/5CR
2026-04-28 16:58:00 -26°C -26% 3.35V v4 52.104 / 5.00436 2955 ttn.v3 0.753km -117 0.2 867.5MHz, SF9BW125, 4/5CR
2026-04-28 16:25:56 -26°C -26% 3.35V v4 52.104 / 5.00436 2953 ttn.v3 0.753km -122 -5 867.3MHz, SF9BW125, 4/5CR
2026-04-28 15:21:49 -26°C -26% 3.35V v4 52.104 / 5.00436 2949 ttn.v3 0.753km -112 1 867.9MHz, SF9BW125, 4/5CR
2026-04-28 14:17:47 -26°C -26% 3.35V v4 52.1041 / 5.00467 2945 ttn.v3 0.735km -117 -4.8 867.5MHz, SF9BW125, 4/5CR
2026-04-28 13:45:44 -26°C -26% 3.35V v4 52.1041 / 5.00467 2943 ttn.v3 0.735km -118 -3.5 867.3MHz, SF9BW125, 4/5CR
2026-04-28 13:13:42 -26°C -26% 3.34V v4 52.1041 / 5.00467 2941 ttn.v3 0.735km -128 -14.8 867.1MHz, SF9BW125, 4/5CR
2026-04-28 12:41:41 -26°C -26% 3.35V v4 52.1041 / 5.00467 2939 ttn.v3 0.735km -124 -7.5 867.9MHz, SF9BW125, 4/5CR
2026-04-28 12:25:40 -26°C -26% 3.35V v4 52.1041 / 5.00467 2938 ttn.v3 0.735km -123 -8 868.1MHz, SF9BW125, 4/5CR
2026-04-28 12:09:40 -26°C -26% 3.35V v4 52.1041 / 5.00467 2937 ttn.v3 0.735km -115 -3.2 867.7MHz, SF9BW125, 4/5CR
2026-04-28 11:53:40 -26°C -26% 3.35V v4 52.1041 / 5.00467 2936 ttn.v3 0.735km -121 -9 868.5MHz, SF9BW125, 4/5CR
2026-04-28 11:37:41 -26°C -26% 3.35V v4 52.1041 / 5.00467 2935 ttn.v3 0.735km -123 -5.8 867.5MHz, SF9BW125, 4/5CR
2026-04-28 11:05:42 -26°C -26% 3.35V v4 52.1041 / 5.00467 2933 ttn.v3 0.735km -122 -6.8 867.3MHz, SF9BW125, 4/5CR
2026-04-28 10:49:43 -26°C -26% 3.35V v4 52.1041 / 5.00467 2932 ttn.v3 0.735km -125 -6 868.1MHz, SF9BW125, 4/5CR
2026-04-28 10:01:46 -26°C -26% 3.35V v4 52.1041 / 5.00467 2929 ttn.v3 0.735km -120 -5.2 867.9MHz, SF9BW125, 4/5CR
2026-04-28 09:13:50 -26°C -26% 3.35V v4 52.1041 / 5.00467 2926 ttn.v3 0.735km -118 -3 868.1MHz, SF9BW125, 4/5CR
2026-04-28 08:57:52 -26°C -26% 3.34V v4 52.1041 / 5.00467 2925 ttn.v3 0.735km -115 0.5 867.5MHz, SF9BW125, 4/5CR
2026-04-28 08:25:55 -26°C -26% 3.35V v4 52.1041 / 5.00467 2923 ttn.v3 0.735km -122 -8 867.3MHz, SF9BW125, 4/5CR
2026-04-28 07:53:58 -26°C -26% 3.35V v4 52.1041 / 5.00467 2921 ttn.v3 0.735km -123 -10 867.1MHz, SF9BW125, 4/5CR
2026-04-28 07:22:02 -26°C -26% 3.35V v4 52.1041 / 5.00467 2919 ttn.v3 0.735km -121 -5.8 867.9MHz, SF9BW125, 4/5CR
2026-04-28 06:50:06 -26°C -26% 3.35V v4 52.1041 / 5.00467 2917 ttn.v3 0.735km -123 -10 867.7MHz, SF9BW125, 4/5CR
2026-04-28 06:18:09 -26°C -26% 3.35V v4 52.1041 / 5.00467 2915 ttn.v3 0.735km -122 -3.5 867.5MHz, SF9BW125, 4/5CR
2026-04-28 06:02:11 -26°C -26% 3.35V v4 52.1041 / 5.00467 2914 ttn.v3 0.735km -124 -5.5 868.1MHz, SF9BW125, 4/5CR
2026-04-28 05:46:13 -26°C -26% 3.34V v4 52.1041 / 5.00467 2913 ttn.v3 0.735km -126 -9.2 867.3MHz, SF9BW125, 4/5CR

Message count: 200
Node count: 1

Messages per node

Number of messages in list aboveNodes
200

Statistics per gateway

GatewayNumber of messagesNumber of nodesNodes
2001 (0.735km)

Filter by dataset